sensor_id;sensor_type;location;lat;lon;timestamp;P1;durP1;ratioP1;P2;durP2;ratioP2
25213;SDS011;13160;51.834;4.706;2022-07-25T00:02:27;10.40;;;6.40;;
25213;SDS011;13160;51.834;4.706;2022-07-25T00:04:55;9.02;;;6.53;;
25213;SDS011;13160;51.834;4.706;2022-07-25T00:07:24;8.45;;;5.82;;
25213;SDS011;13160;51.834;4.706;2022-07-25T00:09:52;7.75;;;6.20;;
25213;SDS011;13160;51.834;4.706;2022-07-25T00:12:21;8.63;;;7.20;;
25213;SDS011;13160;51.834;4.706;2022-07-25T00:14:50;8.55;;;6.57;;
25213;SDS011;13160;51.834;4.706;2022-07-25T00:17:18;9.13;;;6.60;;
25213;SDS011;13160;51.834;4.706;2022-07-25T00:19:47;8.50;;;7.22;;
25213;SDS011;13160;51.834;4.706;2022-07-25T00:22:16;7.50;;;6.43;;
25213;SDS011;13160;51.834;4.706;2022-07-25T00:24:44;11.52;;;6.95;;
25213;SDS011;13160;51.834;4.706;2022-07-25T00:27:12;9.40;;;6.55;;
25213;SDS011;13160;51.834;4.706;2022-07-25T00:29:41;9.02;;;6.78;;
25213;SDS011;13160;51.834;4.706;2022-07-25T00:32:09;8.27;;;6.25;;
25213;SDS011;13160;51.834;4.706;2022-07-25T00:34:37;8.18;;;6.55;;
25213;SDS011;13160;51.834;4.706;2022-07-25T00:37:07;9.77;;;6.35;;
25213;SDS011;13160;51.834;4.706;2022-07-25T00:39:35;10.85;;;6.63;;
25213;SDS011;13160;51.834;4.706;2022-07-25T00:42:04;9.15;;;6.40;;
25213;SDS011;13160;51.834;4.706;2022-07-25T00:44:32;8.35;;;6.25;;
25213;SDS011;13160;51.834;4.706;2022-07-25T00:47:00;8.68;;;6.25;;
25213;SDS011;13160;51.834;4.706;2022-07-25T00:49:29;9.10;;;6.53;;
25213;SDS011;13160;51.834;4.706;2022-07-25T00:51:57;8.07;;;6.70;;
25213;SDS011;13160;51.834;4.706;2022-07-25T00:54:27;7.55;;;6.32;;
25213;SDS011;13160;51.834;4.706;2022-07-25T00:56:56;7.30;;;5.85;;
25213;SDS011;13160;51.834;4.706;2022-07-25T00:59:24;9.40;;;6.75;;
25213;SDS011;13160;51.834;4.706;2022-07-25T01:01:52;7.72;;;6.45;;
25213;SDS011;13160;51.834;4.706;2022-07-25T01:04:21;7.45;;;6.07;;
25213;SDS011;13160;51.834;4.706;2022-07-25T01:06:49;7.32;;;6.32;;
25213;SDS011;13160;51.834;4.706;2022-07-25T01:09:18;8.52;;;6.55;;
25213;SDS011;13160;51.834;4.706;2022-07-25T01:11:48;8.23;;;6.43;;
25213;SDS011;13160;51.834;4.706;2022-07-25T01:14:17;8.98;;;6.25;;
25213;SDS011;13160;51.834;4.706;2022-07-25T01:16:45;10.88;;;6.05;;
25213;SDS011;13160;51.834;4.706;2022-07-25T01:19:14;9.25;;;6.45;;
25213;SDS011;13160;51.834;4.706;2022-07-25T01:21:43;8.85;;;6.60;;
25213;SDS011;13160;51.834;4.706;2022-07-25T01:24:12;7.55;;;6.65;;
25213;SDS011;13160;51.834;4.706;2022-07-25T01:26:40;7.82;;;6.35;;
25213;SDS011;13160;51.834;4.706;2022-07-25T01:29:08;10.95;;;6.63;;
25213;SDS011;13160;51.834;4.706;2022-07-25T01:31:36;9.05;;;6.65;;
25213;SDS011;13160;51.834;4.706;2022-07-25T01:34:05;9.43;;;6.70;;
25213;SDS011;13160;51.834;4.706;2022-07-25T01:36:33;7.78;;;6.95;;
25213;SDS011;13160;51.834;4.706;2022-07-25T01:39:03;8.48;;;6.88;;
25213;SDS011;13160;51.834;4.706;2022-07-25T01:41:31;9.80;;;7.05;;
25213;SDS011;13160;51.834;4.706;2022-07-25T01:44:00;9.35;;;7.95;;
25213;SDS011;13160;51.834;4.706;2022-07-25T01:46:28;10.48;;;6.97;;
25213;SDS011;13160;51.834;4.706;2022-07-25T01:48:57;8.38;;;6.35;;
25213;SDS011;13160;51.834;4.706;2022-07-25T01:51:25;10.18;;;6.88;;
25213;SDS011;13160;51.834;4.706;2022-07-25T01:53:54;10.63;;;6.95;;
25213;SDS011;13160;51.834;4.706;2022-07-25T01:56:24;9.02;;;6.85;;
25213;SDS011;13160;51.834;4.706;2022-07-25T01:58:53;10.13;;;7.28;;
25213;SDS011;13160;51.834;4.706;2022-07-25T02:01:22;8.85;;;7.28;;
25213;SDS011;13160;51.834;4.706;2022-07-25T02:03:51;9.10;;;6.97;;
25213;SDS011;13160;51.834;4.706;2022-07-25T02:06:19;9.82;;;7.40;;
25213;SDS011;13160;51.834;4.706;2022-07-25T02:08:47;7.53;;;6.32;;
25213;SDS011;13160;51.834;4.706;2022-07-25T02:11:16;9.23;;;7.45;;
25213;SDS011;13160;51.834;4.706;2022-07-25T02:13:46;8.60;;;7.45;;
25213;SDS011;13160;51.834;4.706;2022-07-25T02:16:14;10.60;;;6.85;;
25213;SDS011;13160;51.834;4.706;2022-07-25T02:18:43;9.27;;;7.03;;
25213;SDS011;13160;51.834;4.706;2022-07-25T02:21:13;9.52;;;7.65;;
25213;SDS011;13160;51.834;4.706;2022-07-25T02:23:41;9.27;;;7.60;;
25213;SDS011;13160;51.834;4.706;2022-07-25T02:26:11;10.25;;;7.10;;
25213;SDS011;13160;51.834;4.706;2022-07-25T02:28:42;9.73;;;7.70;;
25213;SDS011;13160;51.834;4.706;2022-07-25T02:31:11;10.23;;;7.60;;
25213;SDS011;13160;51.834;4.706;2022-07-25T02:33:40;10.90;;;8.23;;
25213;SDS011;13160;51.834;4.706;2022-07-25T02:36:09;9.30;;;7.47;;
25213;SDS011;13160;51.834;4.706;2022-07-25T02:38:37;8.48;;;7.65;;
25213;SDS011;13160;51.834;4.706;2022-07-25T02:41:06;9.60;;;7.53;;
25213;SDS011;13160;51.834;4.706;2022-07-25T02:43:34;9.18;;;7.72;;
25213;SDS011;13160;51.834;4.706;2022-07-25T02:46:03;15.10;;;7.93;;
25213;SDS011;13160;51.834;4.706;2022-07-25T02:48:33;9.30;;;8.20;;
25213;SDS011;13160;51.834;4.706;2022-07-25T02:51:02;9.00;;;7.55;;
25213;SDS011;13160;51.834;4.706;2022-07-25T02:53:30;9.35;;;8.27;;
25213;SDS011;13160;51.834;4.706;2022-07-25T02:56:18;9.57;;;8.30;;
25213;SDS011;13160;51.834;4.706;2022-07-25T02:58:48;10.23;;;9.10;;
25213;SDS011;13160;51.834;4.706;2022-07-25T03:01:17;11.52;;;9.85;;
25213;SDS011;13160;51.834;4.706;2022-07-25T03:03:46;10.13;;;8.45;;
25213;SDS011;13160;51.834;4.706;2022-07-25T03:06:15;12.93;;;8.68;;
25213;SDS011;13160;51.834;4.706;2022-07-25T03:08:43;14.10;;;8.68;;
25213;SDS011;13160;51.834;4.706;2022-07-25T03:11:12;10.05;;;8.13;;
25213;SDS011;13160;51.834;4.706;2022-07-25T03:13:42;11.77;;;7.95;;
25213;SDS011;13160;51.834;4.706;2022-07-25T03:16:10;11.65;;;7.75;;
25213;SDS011;13160;51.834;4.706;2022-07-25T03:18:39;11.10;;;8.05;;
25213;SDS011;13160;51.834;4.706;2022-07-25T03:21:09;8.75;;;7.75;;
25213;SDS011;13160;51.834;4.706;2022-07-25T03:23:37;9.18;;;7.68;;
25213;SDS011;13160;51.834;4.706;2022-07-25T03:26:05;8.38;;;7.07;;
25213;SDS011;13160;51.834;4.706;2022-07-25T03:28:34;10.32;;;7.57;;
25213;SDS011;13160;51.834;4.706;2022-07-25T03:31:02;8.77;;;6.85;;
25213;SDS011;13160;51.834;4.706;2022-07-25T03:33:31;10.05;;;7.85;;
25213;SDS011;13160;51.834;4.706;2022-07-25T03:36:00;9.20;;;7.55;;
25213;SDS011;13160;51.834;4.706;2022-07-25T03:38:30;11.10;;;7.43;;
25213;SDS011;13160;51.834;4.706;2022-07-25T03:40:58;8.50;;;7.47;;
25213;SDS011;13160;51.834;4.706;2022-07-25T03:43:27;11.40;;;7.45;;
25213;SDS011;13160;51.834;4.706;2022-07-25T03:45:57;7.13;;;6.43;;
25213;SDS011;13160;51.834;4.706;2022-07-25T03:48:25;8.35;;;7.00;;
25213;SDS011;13160;51.834;4.706;2022-07-25T03:50:54;9.40;;;7.18;;
25213;SDS011;13160;51.834;4.706;2022-07-25T03:53:25;10.52;;;6.95;;
25213;SDS011;13160;51.834;4.706;2022-07-25T03:55:55;8.73;;;6.72;;
25213;SDS011;13160;51.834;4.706;2022-07-25T03:58:23;9.48;;;6.95;;
25213;SDS011;13160;51.834;4.706;2022-07-25T04:00:51;9.88;;;6.95;;
25213;SDS011;13160;51.834;4.706;2022-07-25T04:03:19;9.18;;;6.75;;
25213;SDS011;13160;51.834;4.706;2022-07-25T04:05:48;9.93;;;7.20;;
25213;SDS011;13160;51.834;4.706;2022-07-25T04:08:16;11.23;;;6.75;;
25213;SDS011;13160;51.834;4.706;2022-07-25T04:10:44;8.90;;;6.75;;
25213;SDS011;13160;51.834;4.706;2022-07-25T04:13:14;9.95;;;6.85;;
25213;SDS011;13160;51.834;4.706;2022-07-25T04:15:43;9.70;;;6.78;;
25213;SDS011;13160;51.834;4.706;2022-07-25T04:18:11;11.20;;;7.00;;
25213;SDS011;13160;51.834;4.706;2022-07-25T04:20:47;6.88;;;6.18;;
25213;SDS011;13160;51.834;4.706;2022-07-25T04:23:15;8.73;;;5.85;;
25213;SDS011;13160;51.834;4.706;2022-07-25T04:25:44;10.60;;;6.65;;
25213;SDS011;13160;51.834;4.706;2022-07-25T04:28:13;9.40;;;6.50;;
25213;SDS011;13160;51.834;4.706;2022-07-25T04:30:41;7.93;;;6.07;;
25213;SDS011;13160;51.834;4.706;2022-07-25T04:33:10;10.45;;;6.35;;
25213;SDS011;13160;51.834;4.706;2022-07-25T04:35:39;8.68;;;6.40;;
25213;SDS011;13160;51.834;4.706;2022-07-25T04:38:07;7.95;;;6.20;;
25213;SDS011;13160;51.834;4.706;2022-07-25T04:40:37;9.35;;;6.10;;
25213;SDS011;13160;51.834;4.706;2022-07-25T04:43:06;9.65;;;5.85;;
25213;SDS011;13160;51.834;4.706;2022-07-25T04:45:36;9.95;;;6.55;;
25213;SDS011;13160;51.834;4.706;2022-07-25T04:48:05;9.10;;;6.40;;
25213;SDS011;13160;51.834;4.706;2022-07-25T04:50:33;8.73;;;6.05;;
25213;SDS011;13160;51.834;4.706;2022-07-25T04:53:02;8.23;;;6.47;;
25213;SDS011;13160;51.834;4.706;2022-07-25T04:55:30;7.93;;;6.00;;
25213;SDS011;13160;51.834;4.706;2022-07-25T04:58:00;7.50;;;5.18;;
25213;SDS011;13160;51.834;4.706;2022-07-25T05:00:29;7.30;;;5.22;;
25213;SDS011;13160;51.834;4.706;2022-07-25T05:02:59;8.27;;;4.97;;
25213;SDS011;13160;51.834;4.706;2022-07-25T05:05:27;5.85;;;3.97;;
25213;SDS011;13160;51.834;4.706;2022-07-25T05:07:56;5.88;;;4.00;;
25213;SDS011;13160;51.834;4.706;2022-07-25T05:10:26;6.10;;;3.78;;
25213;SDS011;13160;51.834;4.706;2022-07-25T05:12:56;7.10;;;3.80;;
25213;SDS011;13160;51.834;4.706;2022-07-25T05:15:24;6.43;;;3.58;;
25213;SDS011;13160;51.834;4.706;2022-07-25T05:17:53;5.43;;;3.70;;
25213;SDS011;13160;51.834;4.706;2022-07-25T05:20:23;7.20;;;3.60;;
25213;SDS011;13160;51.834;4.706;2022-07-25T05:22:52;5.25;;;3.42;;
25213;SDS011;13160;51.834;4.706;2022-07-25T05:25:20;5.82;;;3.70;;
25213;SDS011;13160;51.834;4.706;2022-07-25T05:27:49;6.85;;;3.33;;
25213;SDS011;13160;51.834;4.706;2022-07-25T05:30:19;6.25;;;3.53;;
25213;SDS011;13160;51.834;4.706;2022-07-25T05:32:48;4.47;;;2.92;;
25213;SDS011;13160;51.834;4.706;2022-07-25T05:35:16;6.07;;;2.83;;
25213;SDS011;13160;51.834;4.706;2022-07-25T05:37:46;4.32;;;2.70;;
25213;SDS011;13160;51.834;4.706;2022-07-25T05:40:14;5.47;;;2.58;;
25213;SDS011;13160;51.834;4.706;2022-07-25T05:42:43;4.50;;;2.90;;
25213;SDS011;13160;51.834;4.706;2022-07-25T05:45:12;5.38;;;2.60;;
25213;SDS011;13160;51.834;4.706;2022-07-25T05:47:40;4.43;;;2.40;;
25213;SDS011;13160;51.834;4.706;2022-07-25T05:50:08;5.07;;;2.30;;
25213;SDS011;13160;51.834;4.706;2022-07-25T05:52:37;5.43;;;2.40;;
25213;SDS011;13160;51.834;4.706;2022-07-25T05:55:07;5.32;;;2.28;;
25213;SDS011;13160;51.834;4.706;2022-07-25T05:57:36;4.05;;;2.30;;
25213;SDS011;13160;51.834;4.706;2022-07-25T06:00:04;6.13;;;2.50;;
25213;SDS011;13160;51.834;4.706;2022-07-25T06:02:34;5.03;;;2.25;;
25213;SDS011;13160;51.834;4.706;2022-07-25T06:05:03;6.93;;;2.28;;
25213;SDS011;13160;51.834;4.706;2022-07-25T06:07:31;6.15;;;2.25;;
25213;SDS011;13160;51.834;4.706;2022-07-25T06:10:00;8.80;;;2.47;;
25213;SDS011;13160;51.834;4.706;2022-07-25T06:12:30;7.22;;;2.60;;
25213;SDS011;13160;51.834;4.706;2022-07-25T06:15:02;9.57;;;2.53;;
25213;SDS011;13160;51.834;4.706;2022-07-25T06:17:31;5.80;;;2.00;;
25213;SDS011;13160;51.834;4.706;2022-07-25T06:19:59;7.40;;;2.20;;
25213;SDS011;13160;51.834;4.706;2022-07-25T06:22:28;6.65;;;2.20;;
25213;SDS011;13160;51.834;4.706;2022-07-25T06:24:57;6.90;;;2.25;;
25213;SDS011;13160;51.834;4.706;2022-07-25T06:27:26;7.38;;;2.00;;
25213;SDS011;13160;51.834;4.706;2022-07-25T06:29:56;8.07;;;2.20;;
25213;SDS011;13160;51.834;4.706;2022-07-25T06:32:24;6.55;;;2.50;;
25213;SDS011;13160;51.834;4.706;2022-07-25T06:34:52;8.15;;;2.58;;
25213;SDS011;13160;51.834;4.706;2022-07-25T06:37:21;10.50;;;2.60;;
25213;SDS011;13160;51.834;4.706;2022-07-25T06:39:49;6.45;;;2.28;;
25213;SDS011;13160;51.834;4.706;2022-07-25T06:42:17;6.63;;;2.17;;
25213;SDS011;13160;51.834;4.706;2022-07-25T06:44:46;8.20;;;2.20;;
25213;SDS011;13160;51.834;4.706;2022-07-25T06:47:15;8.43;;;2.38;;
25213;SDS011;13160;51.834;4.706;2022-07-25T06:49:44;6.93;;;2.45;;
25213;SDS011;13160;51.834;4.706;2022-07-25T06:52:12;8.63;;;2.60;;
25213;SDS011;13160;51.834;4.706;2022-07-25T06:54:41;7.90;;;2.25;;
25213;SDS011;13160;51.834;4.706;2022-07-25T06:57:09;9.15;;;2.88;;
25213;SDS011;13160;51.834;4.706;2022-07-25T06:59:37;10.60;;;2.40;;
25213;SDS011;13160;51.834;4.706;2022-07-25T07:02:05;6.15;;;2.38;;
25213;SDS011;13160;51.834;4.706;2022-07-25T07:04:35;11.73;;;2.40;;
25213;SDS011;13160;51.834;4.706;2022-07-25T07:07:04;8.73;;;2.35;;
25213;SDS011;13160;51.834;4.706;2022-07-25T07:09:32;9.38;;;2.45;;
25213;SDS011;13160;51.834;4.706;2022-07-25T07:12:00;7.45;;;2.13;;
25213;SDS011;13160;51.834;4.706;2022-07-25T07:14:29;8.65;;;2.10;;
25213;SDS011;13160;51.834;4.706;2022-07-25T07:16:57;7.07;;;2.42;;
25213;SDS011;13160;51.834;4.706;2022-07-25T07:19:25;7.45;;;2.25;;
25213;SDS011;13160;51.834;4.706;2022-07-25T07:21:55;6.60;;;2.35;;
25213;SDS011;13160;51.834;4.706;2022-07-25T07:24:24;7.60;;;2.30;;
25213;SDS011;13160;51.834;4.706;2022-07-25T07:26:52;7.30;;;1.98;;
25213;SDS011;13160;51.834;4.706;2022-07-25T07:29:21;8.20;;;2.40;;
25213;SDS011;13160;51.834;4.706;2022-07-25T07:31:49;7.65;;;2.22;;
25213;SDS011;13160;51.834;4.706;2022-07-25T07:34:17;8.90;;;2.40;;
25213;SDS011;13160;51.834;4.706;2022-07-25T07:36:46;7.32;;;2.05;;
25213;SDS011;13160;51.834;4.706;2022-07-25T07:39:15;7.78;;;2.15;;
25213;SDS011;13160;51.834;4.706;2022-07-25T07:41:44;5.63;;;2.10;;
25213;SDS011;13160;51.834;4.706;2022-07-25T07:44:12;9.18;;;2.28;;
25213;SDS011;13160;51.834;4.706;2022-07-25T07:46:41;7.00;;;2.47;;
25213;SDS011;13160;51.834;4.706;2022-07-25T07:49:09;6.72;;;2.20;;
25213;SDS011;13160;51.834;4.706;2022-07-25T07:51:38;7.47;;;2.13;;
25213;SDS011;13160;51.834;4.706;2022-07-25T07:54:06;8.40;;;2.40;;
25213;SDS011;13160;51.834;4.706;2022-07-25T07:56:53;8.55;;;2.55;;
25213;SDS011;13160;51.834;4.706;2022-07-25T07:59:21;6.70;;;2.15;;
25213;SDS011;13160;51.834;4.706;2022-07-25T08:01:50;10.70;;;3.20;;
25213;SDS011;13160;51.834;4.706;2022-07-25T08:04:18;11.02;;;2.85;;
25213;SDS011;13160;51.834;4.706;2022-07-25T08:06:46;8.68;;;2.58;;
25213;SDS011;13160;51.834;4.706;2022-07-25T08:09:15;7.97;;;2.80;;
25213;SDS011;13160;51.834;4.706;2022-07-25T08:11:43;8.70;;;3.17;;
25213;SDS011;13160;51.834;4.706;2022-07-25T08:14:13;7.88;;;2.47;;
25213;SDS011;13160;51.834;4.706;2022-07-25T08:16:41;5.82;;;2.28;;
25213;SDS011;13160;51.834;4.706;2022-07-25T08:19:10;7.45;;;2.42;;
25213;SDS011;13160;51.834;4.706;2022-07-25T08:21:38;7.28;;;2.65;;
25213;SDS011;13160;51.834;4.706;2022-07-25T08:24:06;11.93;;;2.53;;
25213;SDS011;13160;51.834;4.706;2022-07-25T08:26:36;9.27;;;2.70;;
25213;SDS011;13160;51.834;4.706;2022-07-25T08:29:07;8.20;;;2.78;;
25213;SDS011;13160;51.834;4.706;2022-07-25T08:31:54;8.25;;;2.50;;
25213;SDS011;13160;51.834;4.706;2022-07-25T08:34:23;7.28;;;2.67;;
25213;SDS011;13160;51.834;4.706;2022-07-25T08:36:51;7.68;;;2.65;;
25213;SDS011;13160;51.834;4.706;2022-07-25T08:39:19;10.05;;;3.17;;
25213;SDS011;13160;51.834;4.706;2022-07-25T08:41:47;9.48;;;2.90;;
25213;SDS011;13160;51.834;4.706;2022-07-25T08:44:16;8.55;;;2.58;;
25213;SDS011;13160;51.834;4.706;2022-07-25T08:46:47;8.45;;;2.90;;
25213;SDS011;13160;51.834;4.706;2022-07-25T08:49:18;6.78;;;2.22;;
25213;SDS011;13160;51.834;4.706;2022-07-25T08:51:47;5.47;;;2.30;;
25213;SDS011;13160;51.834;4.706;2022-07-25T08:54:17;7.57;;;2.20;;
25213;SDS011;13160;51.834;4.706;2022-07-25T08:56:48;8.45;;;2.50;;
25213;SDS011;13160;51.834;4.706;2022-07-25T08:59:16;7.95;;;2.50;;
25213;SDS011;13160;51.834;4.706;2022-07-25T09:01:44;6.22;;;2.17;;
25213;SDS011;13160;51.834;4.706;2022-07-25T09:04:13;6.80;;;2.63;;
25213;SDS011;13160;51.834;4.706;2022-07-25T09:06:49;9.60;;;2.65;;
25213;SDS011;13160;51.834;4.706;2022-07-25T09:09:28;7.70;;;2.55;;
25213;SDS011;13160;51.834;4.706;2022-07-25T09:11:57;5.88;;;2.08;;
25213;SDS011;13160;51.834;4.706;2022-07-25T09:14:26;9.00;;;2.40;;
25213;SDS011;13160;51.834;4.706;2022-07-25T09:16:55;8.50;;;2.92;;
25213;SDS011;13160;51.834;4.706;2022-07-25T09:19:23;6.28;;;2.20;;
25213;SDS011;13160;51.834;4.706;2022-07-25T09:22:01;7.03;;;2.40;;
25213;SDS011;13160;51.834;4.706;2022-07-25T09:24:32;7.82;;;2.50;;
25213;SDS011;13160;51.834;4.706;2022-07-25T09:27:06;8.18;;;2.50;;
25213;SDS011;13160;51.834;4.706;2022-07-25T09:29:38;7.43;;;2.58;;
25213;SDS011;13160;51.834;4.706;2022-07-25T09:32:18;7.63;;;2.60;;
25213;SDS011;13160;51.834;4.706;2022-07-25T09:34:48;12.55;;;2.92;;
25213;SDS011;13160;51.834;4.706;2022-07-25T09:37:18;8.10;;;2.17;;
25213;SDS011;13160;51.834;4.706;2022-07-25T09:39:52;8.57;;;2.20;;
25213;SDS011;13160;51.834;4.706;2022-07-25T09:42:22;6.78;;;1.98;;
25213;SDS011;13160;51.834;4.706;2022-07-25T09:44:59;10.27;;;2.17;;
25213;SDS011;13160;51.834;4.706;2022-07-25T09:47:33;6.95;;;1.90;;
25213;SDS011;13160;51.834;4.706;2022-07-25T09:50:04;7.30;;;2.22;;
25213;SDS011;13160;51.834;4.706;2022-07-25T09:52:35;6.68;;;2.60;;
25213;SDS011;13160;51.834;4.706;2022-07-25T09:55:04;7.35;;;2.55;;
25213;SDS011;13160;51.834;4.706;2022-07-25T09:57:36;7.57;;;2.40;;
25213;SDS011;13160;51.834;4.706;2022-07-25T10:00:05;9.55;;;2.50;;
25213;SDS011;13160;51.834;4.706;2022-07-25T10:02:40;12.77;;;2.97;;
25213;SDS011;13160;51.834;4.706;2022-07-25T10:05:16;7.35;;;2.60;;
25213;SDS011;13160;51.834;4.706;2022-07-25T10:07:57;7.82;;;2.42;;
25213;SDS011;13160;51.834;4.706;2022-07-25T10:10:28;9.10;;;2.75;;
25213;SDS011;13160;51.834;4.706;2022-07-25T10:13:00;8.23;;;3.42;;
25213;SDS011;13160;51.834;4.706;2022-07-25T10:15:43;7.32;;;2.65;;
25213;SDS011;13160;51.834;4.706;2022-07-25T10:18:15;11.23;;;3.17;;
25213;SDS011;13160;51.834;4.706;2022-07-25T10:20:46;10.88;;;3.40;;
25213;SDS011;13160;51.834;4.706;2022-07-25T10:23:19;12.73;;;3.72;;
25213;SDS011;13160;51.834;4.706;2022-07-25T10:25:59;10.75;;;3.38;;
25213;SDS011;13160;51.834;4.706;2022-07-25T10:28:34;10.55;;;3.20;;
25213;SDS011;13160;51.834;4.706;2022-07-25T10:31:15;9.07;;;3.22;;
25213;SDS011;13160;51.834;4.706;2022-07-25T10:33:49;11.13;;;3.45;;
25213;SDS011;13160;51.834;4.706;2022-07-25T10:36:20;9.70;;;3.38;;
25213;SDS011;13160;51.834;4.706;2022-07-25T10:38:55;13.00;;;3.80;;
25213;SDS011;13160;51.834;4.706;2022-07-25T10:41:24;10.45;;;3.50;;
25213;SDS011;13160;51.834;4.706;2022-07-25T10:43:56;8.10;;;3.22;;
25213;SDS011;13160;51.834;4.706;2022-07-25T10:46:28;18.40;;;4.55;;
25213;SDS011;13160;51.834;4.706;2022-07-25T10:49:02;9.85;;;3.35;;
25213;SDS011;13160;51.834;4.706;2022-07-25T10:51:34;9.38;;;3.25;;
25213;SDS011;13160;51.834;4.706;2022-07-25T10:54:12;11.52;;;3.55;;
25213;SDS011;13160;51.834;4.706;2022-07-25T10:56:52;13.07;;;3.70;;
25213;SDS011;13160;51.834;4.706;2022-07-25T10:59:26;11.43;;;3.50;;
25213;SDS011;13160;51.834;4.706;2022-07-25T11:02:01;12.35;;;4.32;;
25213;SDS011;13160;51.834;4.706;2022-07-25T11:04:30;10.40;;;3.45;;
25213;SDS011;13160;51.834;4.706;2022-07-25T11:07:06;10.90;;;3.58;;
25213;SDS011;13160;51.834;4.706;2022-07-25T11:09:37;9.57;;;3.22;;
25213;SDS011;13160;51.834;4.706;2022-07-25T11:12:13;10.48;;;3.45;;
25213;SDS011;13160;51.834;4.706;2022-07-25T11:14:41;11.02;;;3.80;;
25213;SDS011;13160;51.834;4.706;2022-07-25T11:17:12;10.05;;;3.30;;
25213;SDS011;13160;51.834;4.706;2022-07-25T11:19:51;12.80;;;3.22;;
25213;SDS011;13160;51.834;4.706;2022-07-25T11:22:21;9.57;;;2.75;;
25213;SDS011;13160;51.834;4.706;2022-07-25T11:24:51;8.93;;;2.90;;
25213;SDS011;13160;51.834;4.706;2022-07-25T11:27:21;6.70;;;2.55;;
25213;SDS011;13160;51.834;4.706;2022-07-25T11:29:51;9.10;;;3.10;;
25213;SDS011;13160;51.834;4.706;2022-07-25T11:32:19;13.10;;;3.55;;
25213;SDS011;13160;51.834;4.706;2022-07-25T11:34:48;8.10;;;3.00;;
25213;SDS011;13160;51.834;4.706;2022-07-25T11:37:19;12.10;;;3.30;;
25213;SDS011;13160;51.834;4.706;2022-07-25T11:39:51;8.95;;;3.10;;
25213;SDS011;13160;51.834;4.706;2022-07-25T11:42:21;9.60;;;3.50;;
25213;SDS011;13160;51.834;4.706;2022-07-25T11:44:52;11.98;;;3.35;;
25213;SDS011;13160;51.834;4.706;2022-07-25T11:47:22;8.77;;;2.60;;
25213;SDS011;13160;51.834;4.706;2022-07-25T11:49:53;9.25;;;3.15;;
25213;SDS011;13160;51.834;4.706;2022-07-25T11:52:23;7.70;;;2.65;;
25213;SDS011;13160;51.834;4.706;2022-07-25T11:54:58;10.50;;;3.00;;
25213;SDS011;13160;51.834;4.706;2022-07-25T11:57:28;8.82;;;2.90;;
25213;SDS011;13160;51.834;4.706;2022-07-25T11:59:58;5.88;;;2.40;;
25213;SDS011;13160;51.834;4.706;2022-07-25T12:02:28;9.73;;;3.30;;
25213;SDS011;13160;51.834;4.706;2022-07-25T12:04:59;11.48;;;3.33;;
25213;SDS011;13160;51.834;4.706;2022-07-25T12:07:37;10.20;;;2.53;;
25213;SDS011;13160;51.834;4.706;2022-07-25T12:10:09;9.60;;;2.28;;
25213;SDS011;13160;51.834;4.706;2022-07-25T12:12:43;9.25;;;2.75;;
25213;SDS011;13160;51.834;4.706;2022-07-25T12:15:18;8.38;;;2.90;;
25213;SDS011;13160;51.834;4.706;2022-07-25T12:17:50;6.63;;;2.40;;
25213;SDS011;13160;51.834;4.706;2022-07-25T12:20:21;8.80;;;2.55;;
25213;SDS011;13160;51.834;4.706;2022-07-25T12:22:52;6.10;;;2.15;;
25213;SDS011;13160;51.834;4.706;2022-07-25T12:25:24;8.65;;;2.45;;
25213;SDS011;13160;51.834;4.706;2022-07-25T12:27:56;9.63;;;2.70;;
25213;SDS011;13160;51.834;4.706;2022-07-25T12:30:26;9.98;;;3.20;;
25213;SDS011;13160;51.834;4.706;2022-07-25T12:32:56;9.52;;;3.03;;
25213;SDS011;13160;51.834;4.706;2022-07-25T12:35:26;10.57;;;3.28;;
25213;SDS011;13160;51.834;4.706;2022-07-25T12:37:55;12.07;;;3.15;;
25213;SDS011;13160;51.834;4.706;2022-07-25T12:40:25;13.48;;;4.03;;
25213;SDS011;13160;51.834;4.706;2022-07-25T12:42:53;9.80;;;3.20;;
25213;SDS011;13160;51.834;4.706;2022-07-25T12:45:22;11.25;;;3.45;;
25213;SDS011;13160;51.834;4.706;2022-07-25T12:47:50;12.18;;;3.10;;
25213;SDS011;13160;51.834;4.706;2022-07-25T12:50:19;14.38;;;3.55;;
25213;SDS011;13160;51.834;4.706;2022-07-25T12:52:48;11.45;;;2.63;;
25213;SDS011;13160;51.834;4.706;2022-07-25T12:55:17;11.27;;;3.05;;
25213;SDS011;13160;51.834;4.706;2022-07-25T12:57:48;9.70;;;2.72;;
25213;SDS011;13160;51.834;4.706;2022-07-25T13:00:17;10.27;;;3.13;;
25213;SDS011;13160;51.834;4.706;2022-07-25T13:02:47;11.35;;;2.55;;
25213;SDS011;13160;51.834;4.706;2022-07-25T13:05:18;10.15;;;2.72;;
25213;SDS011;13160;51.834;4.706;2022-07-25T13:07:46;11.48;;;2.50;;
25213;SDS011;13160;51.834;4.706;2022-07-25T13:10:15;8.10;;;2.50;;
25213;SDS011;13160;51.834;4.706;2022-07-25T13:12:45;10.30;;;2.45;;
25213;SDS011;13160;51.834;4.706;2022-07-25T13:15:15;10.60;;;2.38;;
25213;SDS011;13160;51.834;4.706;2022-07-25T13:17:46;14.48;;;2.80;;
25213;SDS011;13160;51.834;4.706;2022-07-25T13:20:14;10.43;;;2.40;;
25213;SDS011;13160;51.834;4.706;2022-07-25T13:22:42;7.18;;;2.17;;
25213;SDS011;13160;51.834;4.706;2022-07-25T13:25:11;12.38;;;2.30;;
25213;SDS011;13160;51.834;4.706;2022-07-25T13:27:39;10.32;;;2.60;;
25213;SDS011;13160;51.834;4.706;2022-07-25T13:30:09;8.05;;;2.17;;
25213;SDS011;13160;51.834;4.706;2022-07-25T13:32:40;9.35;;;2.03;;
25213;SDS011;13160;51.834;4.706;2022-07-25T13:35:09;11.57;;;2.15;;
25213;SDS011;13160;51.834;4.706;2022-07-25T13:37:37;10.88;;;2.00;;
25213;SDS011;13160;51.834;4.706;2022-07-25T13:40:05;9.50;;;2.30;;
25213;SDS011;13160;51.834;4.706;2022-07-25T13:42:35;11.48;;;2.10;;
25213;SDS011;13160;51.834;4.706;2022-07-25T13:45:03;14.43;;;2.30;;
25213;SDS011;13160;51.834;4.706;2022-07-25T13:47:35;6.50;;;1.88;;
25213;SDS011;13160;51.834;4.706;2022-07-25T13:50:03;9.48;;;1.60;;
25213;SDS011;13160;51.834;4.706;2022-07-25T13:52:33;8.80;;;1.45;;
25213;SDS011;13160;51.834;4.706;2022-07-25T13:55:03;8.98;;;1.45;;
25213;SDS011;13160;51.834;4.706;2022-07-25T13:57:32;9.75;;;1.95;;
25213;SDS011;13160;51.834;4.706;2022-07-25T14:00:01;7.15;;;1.70;;
25213;SDS011;13160;51.834;4.706;2022-07-25T14:02:29;8.02;;;1.77;;
25213;SDS011;13160;51.834;4.706;2022-07-25T14:04:59;7.53;;;1.80;;
25213;SDS011;13160;51.834;4.706;2022-07-25T14:07:29;7.28;;;1.73;;
25213;SDS011;13160;51.834;4.706;2022-07-25T14:09:57;9.07;;;1.63;;
25213;SDS011;13160;51.834;4.706;2022-07-25T14:12:26;9.48;;;2.45;;
25213;SDS011;13160;51.834;4.706;2022-07-25T14:14:54;8.20;;;2.05;;
25213;SDS011;13160;51.834;4.706;2022-07-25T14:17:22;7.65;;;1.75;;
25213;SDS011;13160;51.834;4.706;2022-07-25T14:19:55;14.02;;;2.05;;
25213;SDS011;13160;51.834;4.706;2022-07-25T14:22:25;9.38;;;1.50;;
25213;SDS011;13160;51.834;4.706;2022-07-25T14:24:53;8.43;;;1.60;;
25213;SDS011;13160;51.834;4.706;2022-07-25T14:27:22;8.50;;;2.00;;
25213;SDS011;13160;51.834;4.706;2022-07-25T14:29:50;10.05;;;1.60;;
25213;SDS011;13160;51.834;4.706;2022-07-25T14:32:19;5.28;;;1.52;;
25213;SDS011;13160;51.834;4.706;2022-07-25T14:34:47;5.55;;;1.13;;
25213;SDS011;13160;51.834;4.706;2022-07-25T14:37:17;7.00;;;1.83;;
25213;SDS011;13160;51.834;4.706;2022-07-25T14:39:50;10.45;;;1.70;;
25213;SDS011;13160;51.834;4.706;2022-07-25T14:42:18;8.50;;;1.35;;
25213;SDS011;13160;51.834;4.706;2022-07-25T14:44:47;9.95;;;1.50;;
25213;SDS011;13160;51.834;4.706;2022-07-25T14:47:15;6.40;;;1.80;;
25213;SDS011;13160;51.834;4.706;2022-07-25T14:49:43;9.80;;;1.88;;
25213;SDS011;13160;51.834;4.706;2022-07-25T14:52:11;8.80;;;1.60;;
25213;SDS011;13160;51.834;4.706;2022-07-25T14:54:41;11.13;;;2.58;;
25213;SDS011;13160;51.834;4.706;2022-07-25T14:57:11;7.50;;;1.63;;
25213;SDS011;13160;51.834;4.706;2022-07-25T14:59:40;7.13;;;1.50;;